sensor_id;sensor_type;location;lat;lon;timestamp;P1;durP1;ratioP1;P2;durP2;ratioP2
25327;SDS011;13279;51.300;12.394;2023-07-24T00:01:07;2.93;;;2.50;;
25327;SDS011;13279;51.300;12.394;2023-07-24T00:03:34;6.37;;;2.80;;
25327;SDS011;13279;51.300;12.394;2023-07-24T00:06:02;5.50;;;2.73;;
25327;SDS011;13279;51.300;12.394;2023-07-24T00:08:31;2.70;;;2.07;;
25327;SDS011;13279;51.300;12.394;2023-07-24T00:11:00;2.40;;;2.10;;
25327;SDS011;13279;51.300;12.394;2023-07-24T00:13:28;2.07;;;1.87;;
25327;SDS011;13279;51.300;12.394;2023-07-24T00:15:56;5.27;;;2.53;;
25327;SDS011;13279;51.300;12.394;2023-07-24T00:18:24;3.50;;;2.40;;
25327;SDS011;13279;51.300;12.394;2023-07-24T00:20:51;4.10;;;2.63;;
25327;SDS011;13279;51.300;12.394;2023-07-24T00:23:19;6.97;;;2.10;;
25327;SDS011;13279;51.300;12.394;2023-07-24T00:25:48;3.00;;;1.97;;
25327;SDS011;13279;51.300;12.394;2023-07-24T00:28:15;6.63;;;2.07;;
25327;SDS011;13279;51.300;12.394;2023-07-24T00:30:43;2.70;;;2.20;;
25327;SDS011;13279;51.300;12.394;2023-07-24T00:33:10;2.30;;;1.97;;
25327;SDS011;13279;51.300;12.394;2023-07-24T00:35:38;2.50;;;1.90;;
25327;SDS011;13279;51.300;12.394;2023-07-24T00:38:06;2.83;;;1.60;;
25327;SDS011;13279;51.300;12.394;2023-07-24T00:40:34;2.03;;;1.60;;
25327;SDS011;13279;51.300;12.394;2023-07-24T00:43:03;2.10;;;1.87;;
25327;SDS011;13279;51.300;12.394;2023-07-24T00:45:30;2.43;;;1.83;;
25327;SDS011;13279;51.300;12.394;2023-07-24T00:47:58;1.90;;;1.60;;
25327;SDS011;13279;51.300;12.394;2023-07-24T00:50:27;2.50;;;1.80;;
25327;SDS011;13279;51.300;12.394;2023-07-24T00:52:55;1.60;;;1.50;;
25327;SDS011;13279;51.300;12.394;2023-07-24T00:55:24;2.30;;;2.10;;
25327;SDS011;13279;51.300;12.394;2023-07-24T00:57:51;3.20;;;2.13;;
25327;SDS011;13279;51.300;12.394;2023-07-24T01:00:21;6.10;;;1.93;;
25327;SDS011;13279;51.300;12.394;2023-07-24T01:02:48;2.33;;;1.87;;
25327;SDS011;13279;51.300;12.394;2023-07-24T01:05:16;4.50;;;1.83;;
25327;SDS011;13279;51.300;12.394;2023-07-24T01:07:44;4.10;;;1.63;;
25327;SDS011;13279;51.300;12.394;2023-07-24T01:10:11;1.90;;;1.70;;
25327;SDS011;13279;51.300;12.394;2023-07-24T01:12:39;7.27;;;1.97;;
25327;SDS011;13279;51.300;12.394;2023-07-24T01:15:14;2.30;;;1.90;;
25327;SDS011;13279;51.300;12.394;2023-07-24T01:17:48;5.03;;;1.90;;
25327;SDS011;13279;51.300;12.394;2023-07-24T01:20:28;1.60;;;1.50;;
25327;SDS011;13279;51.300;12.394;2023-07-24T01:23:04;9.70;;;2.13;;
25327;SDS011;13279;51.300;12.394;2023-07-24T01:25:49;4.90;;;2.50;;
25327;SDS011;13279;51.300;12.394;2023-07-24T01:28:20;4.50;;;2.10;;
25327;SDS011;13279;51.300;12.394;2023-07-24T01:30:47;4.13;;;2.17;;
25327;SDS011;13279;51.300;12.394;2023-07-24T01:33:15;2.20;;;2.00;;
25327;SDS011;13279;51.300;12.394;2023-07-24T01:35:45;2.93;;;2.20;;
25327;SDS011;13279;51.300;12.394;2023-07-24T01:38:17;2.90;;;2.20;;
25327;SDS011;13279;51.300;12.394;2023-07-24T01:40:45;2.30;;;2.00;;
25327;SDS011;13279;51.300;12.394;2023-07-24T01:43:15;2.50;;;2.30;;
25327;SDS011;13279;51.300;12.394;2023-07-24T01:45:43;5.17;;;2.20;;
25327;SDS011;13279;51.300;12.394;2023-07-24T01:48:10;2.37;;;2.10;;
25327;SDS011;13279;51.300;12.394;2023-07-24T01:50:38;2.40;;;2.20;;
25327;SDS011;13279;51.300;12.394;2023-07-24T01:53:06;3.17;;;2.30;;
25327;SDS011;13279;51.300;12.394;2023-07-24T01:55:34;2.63;;;2.37;;
25327;SDS011;13279;51.300;12.394;2023-07-24T01:58:01;2.50;;;2.30;;
25327;SDS011;13279;51.300;12.394;2023-07-24T02:00:30;8.17;;;2.90;;
25327;SDS011;13279;51.300;12.394;2023-07-24T02:02:57;3.73;;;2.67;;
25327;SDS011;13279;51.300;12.394;2023-07-24T02:05:25;8.83;;;2.70;;
25327;SDS011;13279;51.300;12.394;2023-07-24T02:07:53;3.03;;;2.70;;
25327;SDS011;13279;51.300;12.394;2023-07-24T02:10:21;3.13;;;2.80;;
25327;SDS011;13279;51.300;12.394;2023-07-24T02:12:48;8.43;;;2.90;;
25327;SDS011;13279;51.300;12.394;2023-07-24T02:15:16;4.13;;;2.80;;
25327;SDS011;13279;51.300;12.394;2023-07-24T02:17:45;3.07;;;2.77;;
25327;SDS011;13279;51.300;12.394;2023-07-24T02:20:12;2.90;;;2.60;;
25327;SDS011;13279;51.300;12.394;2023-07-24T02:22:39;5.20;;;3.00;;
25327;SDS011;13279;51.300;12.394;2023-07-24T02:25:07;7.03;;;3.47;;
25327;SDS011;13279;51.300;12.394;2023-07-24T02:27:35;4.27;;;2.87;;
25327;SDS011;13279;51.300;12.394;2023-07-24T02:30:03;4.13;;;3.13;;
25327;SDS011;13279;51.300;12.394;2023-07-24T02:32:31;4.47;;;3.00;;
25327;SDS011;13279;51.300;12.394;2023-07-24T02:35:00;4.47;;;2.80;;
25327;SDS011;13279;51.300;12.394;2023-07-24T02:37:27;2.93;;;2.43;;
25327;SDS011;13279;51.300;12.394;2023-07-24T02:39:54;2.90;;;2.53;;
25327;SDS011;13279;51.300;12.394;2023-07-24T02:42:22;6.07;;;2.80;;
25327;SDS011;13279;51.300;12.394;2023-07-24T02:44:50;4.83;;;2.90;;
25327;SDS011;13279;51.300;12.394;2023-07-24T02:47:19;5.67;;;2.83;;
25327;SDS011;13279;51.300;12.394;2023-07-24T02:49:46;3.30;;;3.00;;
25327;SDS011;13279;51.300;12.394;2023-07-24T02:52:15;4.57;;;2.80;;
25327;SDS011;13279;51.300;12.394;2023-07-24T02:54:42;3.87;;;2.40;;
25327;SDS011;13279;51.300;12.394;2023-07-24T02:57:10;5.07;;;3.00;;
25327;SDS011;13279;51.300;12.394;2023-07-24T02:59:37;5.57;;;2.97;;
25327;SDS011;13279;51.300;12.394;2023-07-24T03:02:05;3.40;;;3.00;;
25327;SDS011;13279;51.300;12.394;2023-07-24T03:04:32;5.30;;;3.63;;
25327;SDS011;13279;51.300;12.394;2023-07-24T03:07:00;4.60;;;3.00;;
25327;SDS011;13279;51.300;12.394;2023-07-24T03:09:28;3.27;;;2.97;;
25327;SDS011;13279;51.300;12.394;2023-07-24T03:11:56;3.20;;;2.90;;
25327;SDS011;13279;51.300;12.394;2023-07-24T03:14:23;7.57;;;3.50;;
25327;SDS011;13279;51.300;12.394;2023-07-24T03:16:51;8.60;;;2.90;;
25327;SDS011;13279;51.300;12.394;2023-07-24T03:19:19;5.13;;;3.03;;
25327;SDS011;13279;51.300;12.394;2023-07-24T03:21:46;2.90;;;2.60;;
25327;SDS011;13279;51.300;12.394;2023-07-24T03:24:17;6.70;;;3.17;;
25327;SDS011;13279;51.300;12.394;2023-07-24T03:26:45;4.20;;;3.03;;
25327;SDS011;13279;51.300;12.394;2023-07-24T03:29:13;5.03;;;3.13;;
25327;SDS011;13279;51.300;12.394;2023-07-24T03:31:40;4.50;;;3.13;;
25327;SDS011;13279;51.300;12.394;2023-07-24T03:34:08;4.00;;;3.17;;
25327;SDS011;13279;51.300;12.394;2023-07-24T03:36:35;3.93;;;2.93;;
25327;SDS011;13279;51.300;12.394;2023-07-24T03:39:06;5.63;;;3.30;;
25327;SDS011;13279;51.300;12.394;2023-07-24T03:41:35;5.50;;;3.53;;
25327;SDS011;13279;51.300;12.394;2023-07-24T03:44:05;7.13;;;3.23;;
25327;SDS011;13279;51.300;12.394;2023-07-24T03:46:33;4.73;;;3.40;;
25327;SDS011;13279;51.300;12.394;2023-07-24T03:49:01;10.00;;;3.93;;
25327;SDS011;13279;51.300;12.394;2023-07-24T03:51:28;4.53;;;2.70;;
25327;SDS011;13279;51.300;12.394;2023-07-24T03:53:55;6.13;;;3.43;;
25327;SDS011;13279;51.300;12.394;2023-07-24T03:56:23;4.33;;;3.27;;
25327;SDS011;13279;51.300;12.394;2023-07-24T03:58:50;7.00;;;3.30;;
25327;SDS011;13279;51.300;12.394;2023-07-24T04:01:20;7.13;;;2.97;;
25327;SDS011;13279;51.300;12.394;2023-07-24T04:03:48;6.13;;;3.50;;
25327;SDS011;13279;51.300;12.394;2023-07-24T04:06:15;4.80;;;3.10;;
25327;SDS011;13279;51.300;12.394;2023-07-24T04:08:43;3.00;;;2.80;;
25327;SDS011;13279;51.300;12.394;2023-07-24T04:11:10;3.90;;;3.03;;
25327;SDS011;13279;51.300;12.394;2023-07-24T04:13:37;3.73;;;2.87;;
25327;SDS011;13279;51.300;12.394;2023-07-24T04:16:05;11.37;;;3.20;;
25327;SDS011;13279;51.300;12.394;2023-07-24T04:18:33;4.10;;;3.10;;
25327;SDS011;13279;51.300;12.394;2023-07-24T04:21:01;5.43;;;3.00;;
25327;SDS011;13279;51.300;12.394;2023-07-24T04:23:28;4.70;;;3.07;;
25327;SDS011;13279;51.300;12.394;2023-07-24T04:25:55;5.57;;;2.83;;
25327;SDS011;13279;51.300;12.394;2023-07-24T04:28:23;3.27;;;2.97;;
25327;SDS011;13279;51.300;12.394;2023-07-24T04:30:50;3.77;;;3.20;;
25327;SDS011;13279;51.300;12.394;2023-07-24T04:33:17;3.53;;;3.07;;
25327;SDS011;13279;51.300;12.394;2023-07-24T04:35:48;3.90;;;3.10;;
25327;SDS011;13279;51.300;12.394;2023-07-24T04:38:16;20.90;;;4.37;;
25327;SDS011;13279;51.300;12.394;2023-07-24T04:40:43;6.57;;;2.90;;
25327;SDS011;13279;51.300;12.394;2023-07-24T04:43:11;5.00;;;3.50;;
25327;SDS011;13279;51.300;12.394;2023-07-24T04:45:38;4.93;;;3.27;;
25327;SDS011;13279;51.300;12.394;2023-07-24T04:48:08;6.43;;;3.43;;
25327;SDS011;13279;51.300;12.394;2023-07-24T04:50:35;5.90;;;3.03;;
25327;SDS011;13279;51.300;12.394;2023-07-24T04:53:04;4.33;;;3.23;;
25327;SDS011;13279;51.300;12.394;2023-07-24T04:55:31;6.07;;;3.20;;
25327;SDS011;13279;51.300;12.394;2023-07-24T04:57:59;4.57;;;3.80;;
25327;SDS011;13279;51.300;12.394;2023-07-24T05:00:26;6.03;;;3.47;;
25327;SDS011;13279;51.300;12.394;2023-07-24T05:02:54;7.23;;;3.57;;
25327;SDS011;13279;51.300;12.394;2023-07-24T05:05:22;3.57;;;3.03;;
25327;SDS011;13279;51.300;12.394;2023-07-24T05:07:49;3.30;;;3.00;;
25327;SDS011;13279;51.300;12.394;2023-07-24T05:10:19;7.50;;;3.83;;
25327;SDS011;13279;51.300;12.394;2023-07-24T05:12:46;8.50;;;3.37;;
25327;SDS011;13279;51.300;12.394;2023-07-24T05:15:13;7.83;;;3.17;;
25327;SDS011;13279;51.300;12.394;2023-07-24T05:17:42;4.93;;;3.63;;
25327;SDS011;13279;51.300;12.394;2023-07-24T05:20:10;3.63;;;3.03;;
25327;SDS011;13279;51.300;12.394;2023-07-24T05:22:38;6.70;;;3.77;;
25327;SDS011;13279;51.300;12.394;2023-07-24T05:25:05;4.87;;;3.70;;
25327;SDS011;13279;51.300;12.394;2023-07-24T05:27:35;4.07;;;3.23;;
25327;SDS011;13279;51.300;12.394;2023-07-24T05:30:03;5.97;;;3.03;;
25327;SDS011;13279;51.300;12.394;2023-07-24T05:32:31;6.83;;;3.60;;
25327;SDS011;13279;51.300;12.394;2023-07-24T05:34:58;5.63;;;3.70;;
25327;SDS011;13279;51.300;12.394;2023-07-24T05:37:26;5.27;;;4.10;;
25327;SDS011;13279;51.300;12.394;2023-07-24T05:39:54;7.67;;;3.27;;
25327;SDS011;13279;51.300;12.394;2023-07-24T05:42:21;4.93;;;3.17;;
25327;SDS011;13279;51.300;12.394;2023-07-24T05:44:50;6.80;;;3.90;;
25327;SDS011;13279;51.300;12.394;2023-07-24T05:47:18;10.53;;;3.60;;
25327;SDS011;13279;51.300;12.394;2023-07-24T05:49:45;5.80;;;3.53;;
25327;SDS011;13279;51.300;12.394;2023-07-24T05:52:13;6.47;;;3.90;;
25327;SDS011;13279;51.300;12.394;2023-07-24T05:54:40;5.40;;;3.40;;
25327;SDS011;13279;51.300;12.394;2023-07-24T05:57:08;4.10;;;3.40;;
25327;SDS011;13279;51.300;12.394;2023-07-24T05:59:35;4.53;;;3.63;;
25327;SDS011;13279;51.300;12.394;2023-07-24T06:02:04;5.77;;;3.83;;
25327;SDS011;13279;51.300;12.394;2023-07-24T06:04:32;9.83;;;3.43;;
25327;SDS011;13279;51.300;12.394;2023-07-24T06:07:00;6.70;;;3.37;;
25327;SDS011;13279;51.300;12.394;2023-07-24T06:09:27;7.87;;;3.80;;
25327;SDS011;13279;51.300;12.394;2023-07-24T06:11:55;7.27;;;3.80;;
25327;SDS011;13279;51.300;12.394;2023-07-24T06:14:22;5.27;;;3.20;;
25327;SDS011;13279;51.300;12.394;2023-07-24T06:16:49;3.90;;;3.50;;
25327;SDS011;13279;51.300;12.394;2023-07-24T06:19:18;8.67;;;3.77;;
25327;SDS011;13279;51.300;12.394;2023-07-24T06:21:45;4.83;;;3.93;;
25327;SDS011;13279;51.300;12.394;2023-07-24T06:24:13;7.97;;;4.40;;
25327;SDS011;13279;51.300;12.394;2023-07-24T06:26:40;4.83;;;3.70;;
25327;SDS011;13279;51.300;12.394;2023-07-24T06:29:08;8.70;;;3.90;;
25327;SDS011;13279;51.300;12.394;2023-07-24T06:31:35;10.60;;;4.97;;
25327;SDS011;13279;51.300;12.394;2023-07-24T06:34:03;7.00;;;3.73;;
25327;SDS011;13279;51.300;12.394;2023-07-24T06:36:32;5.13;;;3.87;;
25327;SDS011;13279;51.300;12.394;2023-07-24T06:39:00;7.33;;;3.70;;
25327;SDS011;13279;51.300;12.394;2023-07-24T06:41:27;5.90;;;4.17;;
25327;SDS011;13279;51.300;12.394;2023-07-24T06:43:54;6.03;;;3.80;;
25327;SDS011;13279;51.300;12.394;2023-07-24T06:46:22;6.23;;;3.67;;
25327;SDS011;13279;51.300;12.394;2023-07-24T06:48:49;6.00;;;4.17;;
25327;SDS011;13279;51.300;12.394;2023-07-24T06:51:17;5.37;;;4.33;;
25327;SDS011;13279;51.300;12.394;2023-07-24T06:53:46;9.97;;;4.20;;
25327;SDS011;13279;51.300;12.394;2023-07-24T06:56:13;8.73;;;4.13;;
25327;SDS011;13279;51.300;12.394;2023-07-24T06:58:40;7.03;;;3.90;;
25327;SDS011;13279;51.300;12.394;2023-07-24T07:01:08;5.00;;;3.73;;
25327;SDS011;13279;51.300;12.394;2023-07-24T07:03:35;8.33;;;4.27;;
25327;SDS011;13279;51.300;12.394;2023-07-24T07:06:03;5.43;;;4.13;;
25327;SDS011;13279;51.300;12.394;2023-07-24T07:08:32;6.07;;;4.47;;
25327;SDS011;13279;51.300;12.394;2023-07-24T07:11:01;4.43;;;3.50;;
25327;SDS011;13279;51.300;12.394;2023-07-24T07:13:29;8.83;;;4.37;;
25327;SDS011;13279;51.300;12.394;2023-07-24T07:15:57;5.47;;;3.73;;
25327;SDS011;13279;51.300;12.394;2023-07-24T07:18:24;6.63;;;4.10;;
25327;SDS011;13279;51.300;12.394;2023-07-24T07:20:52;7.40;;;4.00;;
25327;SDS011;13279;51.300;12.394;2023-07-24T07:23:20;6.77;;;3.50;;
25327;SDS011;13279;51.300;12.394;2023-07-24T07:25:47;5.43;;;3.60;;
25327;SDS011;13279;51.300;12.394;2023-07-24T07:28:16;7.57;;;4.00;;
25327;SDS011;13279;51.300;12.394;2023-07-24T07:30:44;5.93;;;4.33;;
25327;SDS011;13279;51.300;12.394;2023-07-24T07:33:12;6.20;;;4.23;;
25327;SDS011;13279;51.300;12.394;2023-07-24T07:35:40;5.50;;;4.07;;
25327;SDS011;13279;51.300;12.394;2023-07-24T07:38:07;6.07;;;4.13;;
25327;SDS011;13279;51.300;12.394;2023-07-24T07:40:36;6.70;;;4.20;;
25327;SDS011;13279;51.300;12.394;2023-07-24T07:43:04;5.53;;;4.43;;
25327;SDS011;13279;51.300;12.394;2023-07-24T07:45:33;7.20;;;4.20;;
25327;SDS011;13279;51.300;12.394;2023-07-24T07:48:01;5.57;;;4.30;;
25327;SDS011;13279;51.300;12.394;2023-07-24T07:50:28;6.83;;;3.90;;
25327;SDS011;13279;51.300;12.394;2023-07-24T07:52:56;7.13;;;4.10;;
25327;SDS011;13279;51.300;12.394;2023-07-24T07:55:23;7.13;;;4.83;;
25327;SDS011;13279;51.300;12.394;2023-07-24T07:57:51;6.23;;;3.80;;
25327;SDS011;13279;51.300;12.394;2023-07-24T08:00:18;6.27;;;4.47;;
25327;SDS011;13279;51.300;12.394;2023-07-24T08:02:47;8.13;;;4.73;;
25327;SDS011;13279;51.300;12.394;2023-07-24T08:05:14;7.27;;;4.87;;
25327;SDS011;13279;51.300;12.394;2023-07-24T08:07:42;7.63;;;4.13;;
25327;SDS011;13279;51.300;12.394;2023-07-24T08:10:10;8.03;;;4.90;;
25327;SDS011;13279;51.300;12.394;2023-07-24T08:12:40;8.63;;;4.27;;
25327;SDS011;13279;51.300;12.394;2023-07-24T08:15:08;7.90;;;4.17;;
25327;SDS011;13279;51.300;12.394;2023-07-24T08:17:36;8.07;;;4.13;;
25327;SDS011;13279;51.300;12.394;2023-07-24T08:20:05;8.60;;;4.17;;
25327;SDS011;13279;51.300;12.394;2023-07-24T08:22:33;8.10;;;4.30;;
25327;SDS011;13279;51.300;12.394;2023-07-24T08:25:00;6.30;;;4.10;;
25327;SDS011;13279;51.300;12.394;2023-07-24T08:27:28;9.90;;;4.17;;
25327;SDS011;13279;51.300;12.394;2023-07-24T08:29:55;6.53;;;4.03;;
25327;SDS011;13279;51.300;12.394;2023-07-24T08:32:23;9.83;;;4.47;;
25327;SDS011;13279;51.300;12.394;2023-07-24T08:34:50;8.57;;;3.97;;
25327;SDS011;13279;51.300;12.394;2023-07-24T08:37:19;5.43;;;4.30;;
25327;SDS011;13279;51.300;12.394;2023-07-24T08:39:47;7.67;;;4.20;;
25327;SDS011;13279;51.300;12.394;2023-07-24T08:42:15;11.07;;;3.70;;
25327;SDS011;13279;51.300;12.394;2023-07-24T08:44:42;9.23;;;3.70;;
25327;SDS011;13279;51.300;12.394;2023-07-24T08:47:11;5.37;;;4.03;;
25327;SDS011;13279;51.300;12.394;2023-07-24T08:49:39;8.43;;;4.33;;
25327;SDS011;13279;51.300;12.394;2023-07-24T08:52:09;7.93;;;4.40;;
25327;SDS011;13279;51.300;12.394;2023-07-24T08:54:39;7.10;;;3.97;;
25327;SDS011;13279;51.300;12.394;2023-07-24T08:57:06;4.40;;;3.67;;
25327;SDS011;13279;51.300;12.394;2023-07-24T08:59:33;12.43;;;4.37;;
25327;SDS011;13279;51.300;12.394;2023-07-24T09:02:01;5.20;;;3.80;;
25327;SDS011;13279;51.300;12.394;2023-07-24T09:04:28;6.30;;;3.70;;
25327;SDS011;13279;51.300;12.394;2023-07-24T09:06:56;9.77;;;3.80;;
25327;SDS011;13279;51.300;12.394;2023-07-24T09:09:28;7.10;;;4.17;;
25327;SDS011;13279;51.300;12.394;2023-07-24T09:11:58;7.97;;;4.27;;
25327;SDS011;13279;51.300;12.394;2023-07-24T09:14:26;6.63;;;4.43;;
25327;SDS011;13279;51.300;12.394;2023-07-24T09:17:03;8.10;;;4.00;;
25327;SDS011;13279;51.300;12.394;2023-07-24T09:19:32;5.23;;;4.10;;
25327;SDS011;13279;51.300;12.394;2023-07-24T09:22:09;6.80;;;4.70;;
25327;SDS011;13279;51.300;12.394;2023-07-24T09:24:38;5.40;;;3.77;;
25327;SDS011;13279;51.300;12.394;2023-07-24T09:27:17;9.97;;;4.07;;
25327;SDS011;13279;51.300;12.394;2023-07-24T09:29:44;10.30;;;4.27;;
25327;SDS011;13279;51.300;12.394;2023-07-24T09:32:18;5.00;;;4.30;;
25327;SDS011;13279;51.300;12.394;2023-07-24T09:34:47;9.37;;;4.90;;
25327;SDS011;13279;51.300;12.394;2023-07-24T09:37:25;6.20;;;4.40;;
25327;SDS011;13279;51.300;12.394;2023-07-24T09:39:53;7.93;;;4.73;;
25327;SDS011;13279;51.300;12.394;2023-07-24T09:42:28;7.73;;;4.50;;
25327;SDS011;13279;51.300;12.394;2023-07-24T09:44:56;11.70;;;5.37;;
25327;SDS011;13279;51.300;12.394;2023-07-24T09:47:23;7.73;;;5.50;;
25327;SDS011;13279;51.300;12.394;2023-07-24T09:49:52;10.53;;;4.67;;
25327;SDS011;13279;51.300;12.394;2023-07-24T09:52:19;9.53;;;5.67;;
25327;SDS011;13279;51.300;12.394;2023-07-24T09:54:49;8.53;;;5.30;;
25327;SDS011;13279;51.300;12.394;2023-07-24T09:57:23;11.57;;;5.33;;
25327;SDS011;13279;51.300;12.394;2023-07-24T09:59:53;7.77;;;5.47;;
25327;SDS011;13279;51.300;12.394;2023-07-24T10:02:23;9.30;;;5.33;;
25327;SDS011;13279;51.300;12.394;2023-07-24T10:04:51;11.87;;;5.57;;
25327;SDS011;13279;51.300;12.394;2023-07-24T10:07:19;6.83;;;5.20;;
25327;SDS011;13279;51.300;12.394;2023-07-24T10:09:48;8.47;;;5.10;;
25327;SDS011;13279;51.300;12.394;2023-07-24T10:12:18;7.77;;;5.27;;
25327;SDS011;13279;51.300;12.394;2023-07-24T10:14:47;9.60;;;5.23;;
25327;SDS011;13279;51.300;12.394;2023-07-24T10:17:33;7.17;;;5.07;;
25327;SDS011;13279;51.300;12.394;2023-07-24T10:20:03;6.70;;;5.50;;
25327;SDS011;13279;51.300;12.394;2023-07-24T10:22:31;12.50;;;5.07;;
25327;SDS011;13279;51.300;12.394;2023-07-24T10:24:58;9.07;;;5.50;;
25327;SDS011;13279;51.300;12.394;2023-07-24T10:27:26;11.18;;;5.40;;
25327;SDS011;13279;51.300;12.394;2023-07-24T10:30:00;8.17;;;5.77;;
25327;SDS011;13279;51.300;12.394;2023-07-24T10:32:29;7.15;;;5.47;;
25327;SDS011;13279;51.300;12.394;2023-07-24T10:34:58;8.30;;;5.78;;
25327;SDS011;13279;51.300;12.394;2023-07-24T10:37:33;8.00;;;5.78;;
25327;SDS011;13279;51.300;12.394;2023-07-24T10:40:02;10.07;;;5.80;;
25327;SDS011;13279;51.300;12.394;2023-07-24T10:42:30;9.50;;;5.80;;
25327;SDS011;13279;51.300;12.394;2023-07-24T10:45:06;7.88;;;5.72;;
25327;SDS011;13279;51.300;12.394;2023-07-24T10:47:36;8.35;;;6.32;;
25327;SDS011;13279;51.300;12.394;2023-07-24T10:50:03;7.13;;;5.95;;
25327;SDS011;13279;51.300;12.394;2023-07-24T10:52:31;12.63;;;5.53;;
25327;SDS011;13279;51.300;12.394;2023-07-24T10:55:00;27.38;;;6.07;;
25327;SDS011;13279;51.300;12.394;2023-07-24T10:57:28;15.57;;;6.20;;
25327;SDS011;13279;51.300;12.394;2023-07-24T10:59:56;12.10;;;6.33;;
25327;SDS011;13279;51.300;12.394;2023-07-24T11:02:24;18.80;;;7.37;;
25327;SDS011;13279;51.300;12.394;2023-07-24T11:04:53;12.87;;;6.90;;
25327;SDS011;13279;51.300;12.394;2023-07-24T11:07:20;11.33;;;6.30;;
25327;SDS011;13279;51.300;12.394;2023-07-24T11:09:48;11.67;;;6.20;;
25327;SDS011;13279;51.300;12.394;2023-07-24T11:12:16;15.93;;;5.97;;
25327;SDS011;13279;51.300;12.394;2023-07-24T11:14:47;12.60;;;5.50;;
25327;SDS011;13279;51.300;12.394;2023-07-24T11:17:15;11.83;;;6.40;;
25327;SDS011;13279;51.300;12.394;2023-07-24T11:19:42;8.27;;;5.47;;
25327;SDS011;13279;51.300;12.394;2023-07-24T11:22:12;8.40;;;5.90;;
25327;SDS011;13279;51.300;12.394;2023-07-24T11:24:42;12.00;;;6.93;;
25327;SDS011;13279;51.300;12.394;2023-07-24T11:27:12;10.80;;;6.40;;
25327;SDS011;13279;51.300;12.394;2023-07-24T11:29:41;12.60;;;6.50;;
25327;SDS011;13279;51.300;12.394;2023-07-24T11:32:08;13.30;;;6.17;;
25327;SDS011;13279;51.300;12.394;2023-07-24T11:34:36;11.83;;;6.83;;
25327;SDS011;13279;51.300;12.394;2023-07-24T11:37:03;19.77;;;6.93;;
25327;SDS011;13279;51.300;12.394;2023-07-24T11:39:33;10.70;;;6.53;;
25327;SDS011;13279;51.300;12.394;2023-07-24T11:42:00;9.00;;;6.20;;
25327;SDS011;13279;51.300;12.394;2023-07-24T11:44:29;11.50;;;6.10;;
25327;SDS011;13279;51.300;12.394;2023-07-24T11:47:02;10.57;;;6.70;;
25327;SDS011;13279;51.300;12.394;2023-07-24T11:49:31;13.05;;;6.43;;
25327;SDS011;13279;51.300;12.394;2023-07-24T11:52:02;9.03;;;6.30;;
25327;SDS011;13279;51.300;12.394;2023-07-24T11:54:34;9.30;;;6.57;;
25327;SDS011;13279;51.300;12.394;2023-07-24T11:57:02;12.97;;;7.30;;
25327;SDS011;13279;51.300;12.394;2023-07-24T11:59:36;8.77;;;6.37;;
25327;SDS011;13279;51.300;12.394;2023-07-24T12:02:05;8.67;;;6.37;;
25327;SDS011;13279;51.300;12.394;2023-07-24T12:04:36;12.93;;;6.80;;
25327;SDS011;13279;51.300;12.394;2023-07-24T12:07:07;12.27;;;7.27;;
25327;SDS011;13279;51.300;12.394;2023-07-24T12:09:36;9.48;;;7.18;;
25327;SDS011;13279;51.300;12.394;2023-07-24T12:12:03;10.70;;;6.50;;
25327;SDS011;13279;51.300;12.394;2023-07-24T12:14:31;8.93;;;7.03;;
25327;SDS011;13279;51.300;12.394;2023-07-24T12:17:02;9.30;;;6.05;;
25327;SDS011;13279;51.300;12.394;2023-07-24T12:19:35;10.60;;;6.50;;
25327;SDS011;13279;51.300;12.394;2023-07-24T12:22:02;12.25;;;7.13;;
25327;SDS011;13279;51.300;12.394;2023-07-24T12:24:30;11.02;;;7.38;;
25327;SDS011;13279;51.300;12.394;2023-07-24T12:26:59;10.00;;;6.00;;
25327;SDS011;13279;51.300;12.394;2023-07-24T12:29:26;9.85;;;6.80;;
25327;SDS011;13279;51.300;12.394;2023-07-24T12:31:53;11.83;;;6.63;;
25327;SDS011;13279;51.300;12.394;2023-07-24T12:34:21;11.90;;;6.40;;
25327;SDS011;13279;51.300;12.394;2023-07-24T12:36:48;17.65;;;7.38;;
25327;SDS011;13279;51.300;12.394;2023-07-24T12:39:17;10.77;;;7.00;;
25327;SDS011;13279;51.300;12.394;2023-07-24T12:41:44;9.47;;;6.53;;
25327;SDS011;13279;51.300;12.394;2023-07-24T12:44:13;9.23;;;6.07;;
25327;SDS011;13279;51.300;12.394;2023-07-24T12:46:40;8.50;;;6.47;;
25327;SDS011;13279;51.300;12.394;2023-07-24T12:49:08;10.82;;;6.57;;
25327;SDS011;13279;51.300;12.394;2023-07-24T12:51:35;11.30;;;6.47;;
25327;SDS011;13279;51.300;12.394;2023-07-24T12:54:03;9.20;;;7.13;;
25327;SDS011;13279;51.300;12.394;2023-07-24T12:56:30;12.20;;;7.28;;
25327;SDS011;13279;51.300;12.394;2023-07-24T12:58:57;13.27;;;7.40;;
25327;SDS011;13279;51.300;12.394;2023-07-24T13:01:26;11.32;;;6.75;;
25327;SDS011;13279;51.300;12.394;2023-07-24T13:03:54;12.23;;;7.53;;
25327;SDS011;13279;51.300;12.394;2023-07-24T13:06:21;11.50;;;7.20;;
25327;SDS011;13279;51.300;12.394;2023-07-24T13:08:49;12.50;;;6.93;;
25327;SDS011;13279;51.300;12.394;2023-07-24T13:11:17;13.20;;;6.83;;
25327;SDS011;13279;51.300;12.394;2023-07-24T13:13:44;13.70;;;6.85;;
25327;SDS011;13279;51.300;12.394;2023-07-24T13:16:12;11.77;;;7.35;;
25327;SDS011;13279;51.300;12.394;2023-07-24T13:18:41;9.67;;;6.27;;
25327;SDS011;13279;51.300;12.394;2023-07-24T13:21:08;9.63;;;6.37;;
25327;SDS011;13279;51.300;12.394;2023-07-24T13:23:36;11.47;;;7.07;;
25327;SDS011;13279;51.300;12.394;2023-07-24T13:26:03;10.10;;;6.10;;
25327;SDS011;13279;51.300;12.394;2023-07-24T13:28:31;10.47;;;6.87;;
25327;SDS011;13279;51.300;12.394;2023-07-24T13:30:58;9.90;;;7.10;;
25327;SDS011;13279;51.300;12.394;2023-07-24T13:33:26;10.87;;;7.10;;
25327;SDS011;13279;51.300;12.394;2023-07-24T13:35:54;12.80;;;6.83;;
25327;SDS011;13279;51.300;12.394;2023-07-24T13:38:22;10.10;;;7.10;;
25327;SDS011;13279;51.300;12.394;2023-07-24T13:40:49;11.63;;;6.60;;
25327;SDS011;13279;51.300;12.394;2023-07-24T13:43:17;11.13;;;6.93;;
25327;SDS011;13279;51.300;12.394;2023-07-24T13:45:44;10.32;;;5.78;;
25327;SDS011;13279;51.300;12.394;2023-07-24T13:48:11;14.63;;;7.70;;
25327;SDS011;13279;51.300;12.394;2023-07-24T13:50:39;9.32;;;6.90;;
25327;SDS011;13279;51.300;12.394;2023-07-24T13:53:08;10.48;;;7.22;;
25327;SDS011;13279;51.300;12.394;2023-07-24T13:55:35;10.60;;;6.88;;
25327;SDS011;13279;51.300;12.394;2023-07-24T13:58:02;14.63;;;6.85;;
25327;SDS011;13279;51.300;12.394;2023-07-24T14:00:30;11.52;;;6.85;;
25327;SDS011;13279;51.300;12.394;2023-07-24T14:02:57;9.30;;;7.10;;
25327;SDS011;13279;51.300;12.394;2023-07-24T14:05:24;9.50;;;6.10;;
25327;SDS011;13279;51.300;12.394;2023-07-24T14:07:52;13.10;;;6.88;;
25327;SDS011;13279;51.300;12.394;2023-07-24T14:10:21;9.80;;;6.93;;
25327;SDS011;13279;51.300;12.394;2023-07-24T14:12:48;11.30;;;6.43;;
25327;SDS011;13279;51.300;12.394;2023-07-24T14:15:16;9.40;;;6.72;;
25327;SDS011;13279;51.300;12.394;2023-07-24T14:17:43;12.48;;;6.30;;
25327;SDS011;13279;51.300;12.394;2023-07-24T14:20:11;12.88;;;6.95;;
25327;SDS011;13279;51.300;12.394;2023-07-24T14:22:39;11.90;;;7.57;;
25327;SDS011;13279;51.300;12.394;2023-07-24T14:25:06;11.60;;;6.77;;
25327;SDS011;13279;51.300;12.394;2023-07-24T14:27:36;9.23;;;6.80;;
25327;SDS011;13279;51.300;12.394;2023-07-24T14:30:03;9.83;;;6.47;;
25327;SDS011;13279;51.300;12.394;2023-07-24T14:32:32;11.32;;;7.07;;
25327;SDS011;13279;51.300;12.394;2023-07-24T14:34:59;10.23;;;6.23;;
25327;SDS011;13279;51.300;12.394;2023-07-24T14:37:27;11.23;;;6.88;;